Time;durP1;ratioP1;P1;durP2;ratioP2;P2;SDS_P1;SDS_P2;PMS_P1;PMS_P2;Temp;Humidity;BMP_temperature;BMP_pressure;BME280_temperature;BME280_humidity;BME280_pressure;Samples;Min_cycle;Max_cycle;Signal;HPM_P1;HPM_P2
2023/07/15 00:04:29;;;;;;;3.22;2.53;;;;;;;21.60;79.61;100266.66;10424165;28;20076;-71
2023/07/15 00:09:30;;;;;;;4.10;3.10;;;;;;;21.55;79.09;100286.81;10418936;28;20476;-71
2023/07/15 00:14:30;;;;;;;7.93;3.40;;;;;;;21.48;79.04;100293.78;10419175;28;20069;-70
2023/07/15 00:19:33;;;;;;;2.88;2.67;;;;;;;21.46;79.60;100302.31;10419734;28;20030;-70
2023/07/15 00:24:33;;;;;;;7.55;3.83;;;;;;;21.62;79.17;100280.19;10419501;28;20034;-71
2023/07/15 00:29:34;;;;;;;3.25;2.95;;;;;;;21.75;78.39;100291.38;10434955;28;20033;-70
2023/07/15 00:34:34;;;;;;;5.60;3.33;;;;;;;21.68;77.58;100318.44;10419581;28;20430;-71
2023/07/15 00:39:35;;;;;;;3.42;3.08;;;;;;;21.53;77.56;100322.09;10417640;28;20120;-70
2023/07/15 00:44:35;;;;;;;3.08;2.78;;;;;;;21.28;78.07;100330.47;10419130;28;20089;-70
2023/07/15 00:49:36;;;;;;;5.88;3.63;;;;;;;21.01;80.27;100336.38;10418334;28;20394;-70
2023/07/15 00:54:39;;;;;;;4.75;3.70;;;;;;;20.79;81.47;100328.47;10400713;28;20085;-70
2023/07/15 00:59:39;;;;;;;3.50;2.88;;;;;;;20.59;81.52;100323.84;10417661;28;20040;-71
2023/07/15 01:04:40;;;;;;;3.47;3.13;;;;;;;20.42;81.93;100322.19;10383254;28;20025;-70
2023/07/15 01:09:40;;;;;;;12.43;3.58;;;;;;;20.24;81.91;100316.44;10416982;28;20045;-71
2023/07/15 01:14:43;;;;;;;3.58;2.60;;;;;;;20.15;82.55;100319.72;10432528;28;20137;-71
2023/07/15 01:19:43;;;;;;;6.20;2.85;;;;;;;20.12;83.41;100313.94;10416751;28;20078;-71
2023/07/15 01:24:44;;;;;;;3.42;2.55;;;;;;;20.31;84.59;100303.22;10433602;28;20519;-70
2023/07/15 01:29:45;;;;;;;5.57;2.95;;;;;;;20.45;92.09;100307.03;10416612;28;20397;-70
2023/07/15 01:34:47;;;;;;;4.95;2.58;;;;;;;20.74;91.94;100315.56;10416788;28;20064;-71
2023/07/15 01:39:49;;;;;;;4.32;3.08;;;;;;;20.91;94.01;100315.22;10399029;28;20056;-71
2023/07/15 01:44:49;;;;;;;7.72;2.63;;;;;;;20.87;93.91;100322.41;10416484;28;20068;-71
2023/07/15 01:49:50;;;;;;;8.77;3.42;;;;;;;20.85;98.01;100319.09;10415432;28;20068;-71
2023/07/15 01:54:50;;;;;;;4.32;2.72;;;;;;;20.89;97.88;100311.91;10416314;28;20069;-71
2023/07/15 01:59:57;;;;;;;2.05;1.65;;;;;;;20.78;98.22;100324.88;10414380;28;20025;-70
2023/07/15 02:04:57;;;;;;;3.25;1.80;;;;;;;20.74;98.91;100323.81;10414975;28;20476;-70
2023/07/15 02:09:58;;;;;;;18.20;2.78;;;;;;;20.74;100.00;100321.06;10416306;28;20048;-70
2023/07/15 02:14:58;;;;;;;1.85;1.75;;;;;;;20.69;98.86;100318.31;10414684;28;20048;-70
2023/07/15 02:19:59;;;;;;;2.67;2.28;;;;;;;20.63;100.00;100316.66;10414775;28;20463;-70
2023/07/15 02:25:00;;;;;;;7.68;2.50;;;;;;;20.67;100.00;100317.75;10413351;28;20109;-70
2023/07/15 02:30:00;;;;;;;3.67;3.20;;;;;;;20.71;100.00;100290.50;10412798;28;20033;-71
2023/07/15 02:35:02;;;;;;;4.18;2.65;;;;;;;20.70;100.00;100319.13;10412452;28;20030;-70
2023/07/15 02:40:04;;;;;;;1.95;1.85;;;;;;;20.70;100.00;100325.44;10415469;28;20061;-70
2023/07/15 02:45:06;;;;;;;3.65;2.45;;;;;;;20.78;100.00;100321.31;10428944;28;20128;-70
2023/07/15 02:50:07;;;;;;;2.63;2.40;;;;;;;20.64;100.00;100313.66;10411702;28;20036;-71
2023/07/15 02:55:08;;;;;;;4.82;2.10;;;;;;;20.49;100.00;100319.16;10413203;28;20048;-70
2023/07/15 03:00:14;;;;;;;10.10;2.90;;;;;;;20.37;100.00;100315.84;10395519;28;20121;-70
2023/07/15 03:05:15;;;;;;;2.40;2.20;;;;;;;20.33;100.00;100310.09;10413378;28;20112;-71
2023/07/15 03:10:18;;;;;;;3.08;2.75;;;;;;;20.38;100.00;100321.06;10379274;28;20057;-70
2023/07/15 03:15:19;;;;;;;3.08;2.83;;;;;;;20.50;100.00;100311.72;10412690;28;20037;-71
2023/07/15 03:20:20;;;;;;;5.82;2.80;;;;;;;20.56;100.00;100316.13;10412945;28;20103;-71
2023/07/15 03:25:20;;;;;;;3.47;2.90;;;;;;;20.60;100.00;100309.78;10394617;28;20091;-70
2023/07/15 03:30:21;;;;;;;3.38;3.08;;;;;;;20.66;100.00;100319.69;10412493;28;20455;-71
2023/07/15 03:35:22;;;;;;;6.70;3.63;;;;;;;20.71;100.00;100318.84;10410217;28;20033;-71
2023/07/15 03:40:22;;;;;;;3.22;2.45;;;;;;;20.70;100.00;100324.63;10377701;28;20045;-70
2023/07/15 03:45:22;;;;;;;2.83;2.47;;;;;;;20.69;100.00;100323.81;10410187;28;20073;-71
2023/07/15 03:50:23;;;;;;;4.20;2.28;;;;;;;20.59;100.00;100321.09;10412011;28;20037;-71
2023/07/15 03:55:24;;;;;;;2.72;2.47;;;;;;;20.61;100.00;100327.97;10411401;28;20041;-71
2023/07/15 04:00:24;;;;;;;2.42;2.20;;;;;;;20.55;100.00;100339.22;10410623;28;20389;-71
2023/07/15 04:05:25;;;;;;;9.27;2.70;;;;;;;20.47;100.00;100328.78;10411853;28;20041;-71
2023/07/15 04:10:26;;;;;;;4.60;1.95;;;;;;;20.43;100.00;100339.50;10409858;28;20095;-71
2023/07/15 04:15:26;;;;;;;1.85;1.75;;;;;;;20.35;100.00;100356.56;10410928;28;20376;-71
2023/07/15 04:20:27;;;;;;;2.33;1.50;;;;;;;20.28;100.00;100367.81;10410161;28;20049;-71
2023/07/15 04:25:27;;;;;;;8.73;3.20;;;;;;;20.25;100.00;100370.31;10412301;28;20124;-71
2023/07/15 04:30:28;;;;;;;2.97;2.17;;;;;;;20.13;100.00;100376.91;10409714;28;20078;-71
2023/07/15 04:35:28;;;;;;;8.00;2.72;;;;;;;20.11;100.00;100359.03;10411819;28;20045;-71
2023/07/15 04:40:28;;;;;;;2.50;2.17;;;;;;;20.10;100.00;100385.72;10410785;28;20129;-71
2023/07/15 04:45:30;;;;;;;3.85;1.70;;;;;;;19.92;100.00;100359.56;10414074;28;20084;-70
2023/07/15 04:50:30;;;;;;;6.80;1.58;;;;;;;19.91;100.00;100357.94;10417668;28;20046;-70
2023/07/15 04:55:31;;;;;;;8.68;2.15;;;;;;;19.97;100.00;100364.22;10433250;28;20082;-71
2023/07/15 05:00:31;;;;;;;2.33;1.60;;;;;;;19.99;100.00;100367.53;10433128;28;20453;-70
2023/07/15 05:05:32;;;;;;;9.25;2.35;;;;;;;20.03;100.00;100370.56;10418797;28;20037;-71
2023/07/15 05:10:33;;;;;;;6.85;2.60;;;;;;;20.04;100.00;100372.19;10417995;28;20081;-71
2023/07/15 05:15:38;;;;;;;3.55;2.10;;;;;;;20.02;100.00;100378.00;10434199;28;20033;-70
2023/07/15 05:20:38;;;;;;;2.65;1.67;;;;;;;20.00;100.00;100384.84;10417418;28;20034;-71
2023/07/15 05:25:39;;;;;;;10.43;2.10;;;;;;;20.03;100.00;100376.88;10416459;28;20037;-72
2023/07/15 05:30:39;;;;;;;4.40;1.45;;;;;;;20.02;100.00;100372.50;10417836;28;20053;-70
2023/07/15 05:35:39;;;;;;;10.00;2.63;;;;;;;20.07;100.00;100377.16;10415435;28;20495;-71
2023/07/15 05:40:41;;;;;;;5.05;2.30;;;;;;;20.08;100.00;100385.16;10399058;28;20078;-70
2023/07/15 05:45:42;;;;;;;3.90;1.75;;;;;;;20.10;100.00;100382.97;10415431;28;20168;-70
2023/07/15 05:50:42;;;;;;;5.05;2.30;;;;;;;20.24;100.00;100385.16;10398421;28;20193;-71
2023/07/15 05:55:42;;;;;;;7.43;3.72;;;;;;;20.37;100.00;100387.34;10416154;28;20037;-71
2023/07/15 06:00:43;;;;;;;8.45;2.10;;;;;;;20.48;100.00;100394.50;10416418;28;20069;-71
2023/07/15 06:05:44;;;;;;;7.15;2.00;;;;;;;20.37;99.76;100403.84;10431658;28;20484;-71
2023/07/15 06:10:44;;;;;;;2.72;2.53;;;;;;;20.42;99.42;100390.94;10430929;28;20026;-71
2023/07/15 06:15:51;;;;;;;5.07;1.85;;;;;;;20.56;99.50;100396.72;10414759;28;20517;-72
2023/07/15 06:20:51;;;;;;;11.88;2.38;;;;;;;20.95;98.62;100395.28;10413333;28;20072;-71
2023/07/15 06:25:52;;;;;;;3.83;1.63;;;;;;;21.69;97.23;100388.16;10413710;28;20041;-71
2023/07/15 06:31:02;;;;;;;11.02;2.25;;;;;;;21.93;95.08;100389.09;10412549;28;20137;-71
2023/07/15 06:36:03;;;;;;;3.30;2.22;;;;;;;22.06;94.17;100402.25;10413687;28;20132;-71
2023/07/15 06:41:03;;;;;;;6.88;3.05;;;;;;;22.27;92.04;100402.13;10412720;28;20037;-71
2023/07/15 06:46:05;;;;;;;3.88;2.10;;;;;;;22.37;91.35;100398.47;10414637;28;20096;-71
2023/07/15 06:51:06;;;;;;;15.35;2.28;;;;;;;22.29;90.22;100386.13;10411446;28;20217;-71
2023/07/15 06:56:06;;;;;;;6.55;1.70;;;;;;;22.42;89.39;100390.97;10429178;28;20128;-70
2023/07/15 07:01:06;;;;;;;6.00;1.95;;;;;;;22.78;84.05;100390.63;10410805;28;20108;-71
2023/07/15 07:06:07;;;;;;;2.65;2.25;;;;;;;23.36;85.27;100398.06;10393958;28;20041;-71
2023/07/15 07:11:07;;;;;;;5.25;2.70;;;;;;;23.41;81.63;100398.78;10410250;28;20041;-70
2023/07/15 07:16:08;;;;;;;3.97;2.15;;;;;;;23.65;81.98;100390.47;10411117;28;20131;-71
2023/07/15 07:21:08;;;;;;;2.72;2.45;;;;;;;24.00;81.99;100387.53;10394593;28;20152;-71
2023/07/15 07:26:08;;;;;;;1.88;1.77;;;;;;;23.74;75.70;100400.88;10412895;28;20048;-70
2023/07/15 07:31:10;;;;;;;1.75;1.65;;;;;;;24.04;76.11;100402.41;10412249;28;20056;-70
2023/07/15 07:36:10;;;;;;;1.75;1.63;;;;;;;24.77;71.90;100407.28;10410044;28;20030;-71
2023/07/15 07:41:11;;;;;;;4.43;1.70;;;;;;;24.26;72.28;100385.19;10411917;28;20033;-70
2023/07/15 07:46:12;;;;;;;4.65;2.25;;;;;;;24.74;70.47;100398.78;10395234;28;20053;-70
2023/07/15 07:51:12;;;;;;;2.08;1.88;;;;;;;24.82;64.77;100403.59;10412866;28;20398;-70
2023/07/15 07:56:13;;;;;;;1.48;1.38;;;;;;;24.80;64.69;100412.22;10411079;28;20072;-71
2023/07/15 08:01:14;;;;;;;2.88;1.88;;;;;;;25.33;62.04;100416.50;10411116;28;20123;-70
2023/07/15 08:06:15;;;;;;;2.67;1.88;;;;;;;24.61;59.88;100422.53;10411471;28;20033;-70
2023/07/15 08:11:15;;;;;;;3.67;1.65;;;;;;;24.02;62.18;100424.00;10411567;28;20469;-70
2023/07/15 08:16:32;;;;;;;5.10;2.00;;;;;;;24.13;63.64;100419.97;10394243;28;20036;-70
2023/07/15 08:21:33;;;;;;;5.28;2.10;;;;;;;24.22;63.94;100433.91;10411377;28;20376;-70
2023/07/15 08:26:33;;;;;;;3.75;2.60;;;;;;;24.22;61.30;100443.06;10418579;28;20045;-70
2023/07/15 08:31:33;;;;;;;6.18;2.28;;;;;;;24.73;57.93;100435.88;10417590;28;20037;-70
2023/07/15 08:36:36;;;;;;;6.00;2.78;;;;;;;25.26;55.90;100432.72;10400623;28;20378;-70
2023/07/15 08:41:36;;;;;;;4.38;2.55;;;;;;;25.89;52.45;100443.06;10417313;28;20159;-70
2023/07/15 08:46:37;;;;;;;3.13;2.22;;;;;;;25.32;51.21;100445.34;10401120;28;20124;-70
2023/07/15 08:51:38;;;;;;;3.88;1.73;;;;;;;24.62;54.46;100442.72;10417206;28;20093;-70
2023/07/15 08:56:38;;;;;;;1.85;1.70;;;;;;;25.09;55.34;100436.06;10417647;28;20040;-71
2023/07/15 09:01:39;;;;;;;1.50;1.40;;;;;;;25.53;56.34;100440.22;10417438;28;20044;-70
2023/07/15 09:06:39;;;;;;;2.40;1.75;;;;;;;25.80;55.20;100441.31;10400289;28;20523;-70
2023/07/15 09:11:41;;;;;;;8.65;1.77;;;;;;;25.72;54.03;100465.06;10415750;28;20132;-70
2023/07/15 09:16:41;;;;;;;1.92;1.75;;;;;;;25.12;53.63;100460.44;10398940;28;20411;-70
2023/07/15 09:22:03;;;;;;;1.90;1.65;;;;;;;26.78;52.91;100457.38;10414952;28;20040;-70
2023/07/15 09:27:03;;;;;;;2.15;1.38;;;;;;;28.02;51.26;100456.44;10416130;28;20454;-70
2023/07/15 09:32:06;;;;;;;3.38;1.48;;;;;;;27.37;49.34;100452.47;10415452;28;20044;-71
2023/07/15 09:37:07;;;;;;;1.92;1.77;;;;;;;26.96;48.59;100459.09;10414326;28;20037;-70
2023/07/15 09:42:07;;;;;;;6.93;1.60;;;;;;;27.19;49.73;100450.78;10415366;28;20048;-70
2023/07/15 09:47:08;;;;;;;2.13;1.85;;;;;;;27.86;49.59;100453.28;10415168;28;20124;-78
2023/07/15 09:52:08;;;;;;;1.20;1.20;;;;;;;28.89;48.95;100456.41;10416480;28;20414;-80
2023/07/15 09:57:13;;;;;;;1.73;1.58;;;;;;;28.52;45.77;100448.41;10414812;28;20116;-78
2023/07/15 10:02:33;;;;;;;1.63;1.52;;;;;;;27.35;46.83;100468.66;10398838;28;20052;-78
2023/07/15 10:07:33;;;;;;;3.47;2.58;;;;;;;27.04;48.92;100465.84;10425343;28;20369;-79
2023/07/15 10:12:35;;;;;;;2.00;1.75;;;;;;;29.70;45.54;100460.22;10415615;28;20038;-80
2023/07/15 10:17:36;;;;;;;3.35;2.33;;;;;;;29.48;43.42;100448.16;10431269;28;20385;-75
2023/07/15 10:22:39;;;;;;;1.63;1.35;;;;;;;27.81;45.73;100445.91;10413029;28;20052;-76
2023/07/15 10:27:40;;;;;;;1.85;1.58;;;;;;;27.41;47.60;100441.50;10414073;28;20470;-79
2023/07/15 10:33:03;;;;;;;6.00;2.40;;;;;;;29.31;44.37;100429.53;10429411;28;20124;-79
2023/07/15 10:38:26;;;;;;;2.70;2.50;;;;;;;30.08;42.68;100426.63;10413806;28;20532;-79
2023/07/15 10:43:37;;;;;;;1.67;1.58;;;;;;;30.41;42.30;100412.75;10413088;28;20108;-78
2023/07/15 10:48:39;;;;;;;1.85;1.73;;;;;;;31.05;40.73;100391.84;10413460;28;20500;-79
2023/07/15 10:53:39;;;;;;;8.20;1.98;;;;;;;30.83;40.56;100406.25;10412278;28;20041;-79
2023/07/15 10:58:41;;;;;;;2.88;2.10;;;;;;;30.35;40.49;100400.94;10429611;28;20041;-79
2023/07/15 11:03:42;;;;;;;2.00;1.90;;;;;;;30.66;42.31;100382.06;10413292;28;20052;-80
2023/07/15 11:08:44;;;;;;;3.15;1.98;;;;;;;31.10;40.00;100390.78;10428597;28;20036;-80
2023/07/15 11:13:46;;;;;;;5.03;2.58;;;;;;;31.52;39.78;100368.16;10413166;28;20034;-80
2023/07/15 11:18:47;;;;;;;3.60;1.80;;;;;;;31.69;38.06;100371.53;10412596;28;20029;-80
2023/07/15 11:23:48;;;;;;;2.30;1.75;;;;;;;30.17;39.89;100359.53;10429348;28;20033;-80
2023/07/15 11:28:49;;;;;;;4.30;2.60;;;;;;;29.89;41.00;100372.06;10379035;28;20124;-80
2023/07/15 11:33:53;;;;;;;4.32;2.30;;;;;;;30.79;39.69;100353.84;10394888;28;20125;-77
2023/07/15 11:38:53;;;;;;;8.95;2.70;;;;;;;31.26;40.63;100346.94;10410892;28;20495;-78
2023/07/15 11:43:54;;;;;;;2.33;2.10;;;;;;;29.96;41.39;100351.16;10412186;28;20063;-79
2023/07/15 11:48:56;;;;;;;4.00;1.85;;;;;;;29.80;43.54;100326.69;10410632;28;20117;-78
2023/07/15 11:53:57;;;;;;;2.40;2.20;;;;;;;30.77;41.04;100342.16;10414675;28;20040;-81
2023/07/15 11:59:01;;;;;;;2.42;2.22;;;;;;;29.91;42.51;100323.47;10442207;28;20089;-83
2023/07/15 12:04:01;;;;;;;2.42;2.20;;;;;;;29.54;43.42;100329.63;10426506;28;20041;-82
2023/07/15 12:09:06;;;;;;;3.55;2.83;;;;;;;28.47;45.20;100322.44;10426717;28;20356;-83
2023/07/15 12:14:07;;;;;;;2.38;2.28;;;;;;;27.78;47.02;100314.97;10449998;28;20052;-82
2023/07/15 12:19:10;;;;;;;5.00;2.15;;;;;;;27.94;47.86;100312.50;10411377;28;20025;-83
2023/07/15 12:24:11;;;;;;;2.13;1.95;;;;;;;30.61;44.27;100302.06;10428386;28;20034;-82
2023/07/15 12:29:11;;;;;;;15.45;2.15;;;;;;;30.56;41.69;100299.47;10435949;28;20061;-82
2023/07/15 12:34:12;;;;;;;1.50;1.40;;;;;;;29.91;42.10;100289.97;10413377;28;20030;-83
2023/07/15 12:39:12;;;;;;;3.50;2.58;;;;;;;28.82;43.67;100284.13;10443212;28;20087;-82
2023/07/15 12:44:13;;;;;;;1.63;1.48;;;;;;;28.32;44.15;100290.34;10424889;28;20060;-81
2023/07/15 12:49:13;;;;;;;4.53;2.28;;;;;;;28.60;43.26;100289.97;10436025;28;20061;-81
2023/07/15 12:54:14;;;;;;;3.38;2.08;;;;;;;28.25;43.37;100284.47;10436570;28;20076;-80
2023/07/15 12:59:15;;;;;;;2.08;1.92;;;;;;;28.65;43.17;100278.63;10418108;28;20461;-79
2023/07/15 13:04:16;;;;;;;4.63;1.23;;;;;;;27.92;44.13;100275.84;10417706;28;20039;-79
2023/07/15 13:09:16;;;;;;;2.63;1.85;;;;;;;27.93;43.93;100263.56;10415878;28;20425;-79
2023/07/15 13:14:17;;;;;;;2.65;1.65;;;;;;;27.62;44.66;100247.84;10418099;28;20025;-85
2023/07/15 13:19:18;;;;;;;7.57;1.23;;;;;;;27.59;43.92;100254.88;10417154;28;20191;-81
2023/07/15 13:24:20;;;;;;;1.30;1.20;;;;;;;27.54;43.67;100245.91;10416430;28;20461;-78
2023/07/15 13:29:20;;;;;;;3.50;1.48;;;;;;;27.06;43.87;100238.47;10416745;28;20037;-77
2023/07/15 13:34:20;;;;;;;1.83;1.73;;;;;;;26.73;44.77;100238.88;10415706;28;20212;-78
2023/07/15 13:39:37;;;;;;;0.88;0.88;;;;;;;26.39;42.99;100217.34;10398471;28;20030;-77
2023/07/15 13:44:38;;;;;;;1.33;1.27;;;;;;;26.15;43.92;100221.28;10399592;28;20056;-75
2023/07/15 13:49:38;;;;;;;0.98;0.98;;;;;;;25.82;44.84;100236.63;10417602;28;20080;-77
2023/07/15 13:54:39;;;;;;;2.72;2.00;;;;;;;25.60;46.59;100245.72;10414681;28;20065;-79
2023/07/15 13:59:39;;;;;;;9.90;1.63;;;;;;;24.93;52.86;100297.03;10416156;28;20063;-76
2023/07/15 14:04:40;;;;;;;13.63;3.55;;;;;;;23.18;64.49;100355.44;10370812;28;20037;-82
2023/07/15 14:09:40;;;;;;;5.40;1.90;;;;;;;21.20;95.56;100361.34;10413684;28;20200;-73
2023/07/15 14:14:40;;;;;;;2.40;1.95;;;;;;;20.18;100.00;100379.66;10414699;28;20034;-72
2023/07/15 14:19:41;;;;;;;5.68;2.53;;;;;;;19.58;100.00;100385.81;10416008;28;20034;-76
2023/07/15 14:24:41;;;;;;;4.47;3.13;;;;;;;19.18;100.00;100390.91;10413688;28;20029;-72
2023/07/15 14:29:42;;;;;;;6.55;2.67;;;;;;;19.01;100.00;100403.97;10414878;28;20053;-69
2023/07/15 14:34:42;;;;;;;13.57;3.97;;;;;;;19.02;100.00;100402.88;10429292;28;20029;-71
2023/07/15 14:39:43;;;;;;;5.88;3.35;;;;;;;19.32;100.00;100402.22;10414367;28;20084;-72
2023/07/15 14:44:43;;;;;;;7.00;3.30;;;;;;;19.39;100.00;100413.75;10414361;28;20146;-72
2023/07/15 14:49:44;;;;;;;3.75;2.78;;;;;;;20.00;100.00;100404.91;10412348;28;20033;-71
2023/07/15 14:54:44;;;;;;;3.55;2.65;;;;;;;19.81;100.00;100414.75;10414782;28;20033;-70
2023/07/15 14:59:44;;;;;;;11.25;2.97;;;;;;;19.39;100.00;100408.28;10415109;28;20053;-70
2023/07/15 15:04:45;;;;;;;4.65;3.47;;;;;;;18.98;100.00;100442.91;10412026;28;20029;-70
2023/07/15 15:09:45;;;;;;;8.43;2.75;;;;;;;18.74;100.00;100432.34;10412530;28;20393;-70
2023/07/15 15:14:46;;;;;;;2.25;2.03;;;;;;;18.62;100.00;100423.44;10412870;28;20099;-70
2023/07/15 15:19:46;;;;;;;2.35;2.15;;;;;;;18.48;100.00;100433.19;10412541;28;20381;-70
2023/07/15 15:24:46;;;;;;;9.25;2.95;;;;;;;18.53;100.00;100447.75;10412351;28;20053;-71
2023/07/15 15:29:47;;;;;;;3.63;2.38;;;;;;;18.64;100.00;100432.22;10412893;28;20072;-70
2023/07/15 15:34:47;;;;;;;3.35;2.30;;;;;;;18.85;100.00;100446.13;10410823;28;20100;-70
2023/07/15 15:39:48;;;;;;;3.78;2.33;;;;;;;19.07;100.00;100429.53;10411775;28;20032;-70
2023/07/15 15:44:48;;;;;;;7.47;2.67;;;;;;;19.59;100.00;100423.19;10410702;28;20041;-70
2023/07/15 15:49:49;;;;;;;12.20;2.40;;;;;;;19.95;100.00;100415.91;10411578;28;20061;-71
2023/07/15 15:54:49;;;;;;;5.32;2.85;;;;;;;19.97;100.00;100421.94;10413112;28;20124;-71
2023/07/15 15:59:49;;;;;;;1.70;1.60;;;;;;;20.89;100.00;100422.81;10409799;28;20036;-71
2023/07/15 16:04:50;;;;;;;2.53;1.70;;;;;;;20.81;100.00;100412.38;10410615;28;20341;-71
2023/07/15 16:09:50;;;;;;;4.82;2.90;;;;;;;20.50;100.00;100403.31;10427577;28;20326;-70
2023/07/15 16:14:51;;;;;;;10.18;2.60;;;;;;;20.35;100.00;100428.06;10411088;28;20033;-70
2023/07/15 16:19:51;;;;;;;2.83;1.95;;;;;;;20.13;100.00;100428.28;10410705;28;20110;-71
2023/07/15 16:24:51;;;;;;;2.28;1.40;;;;;;;20.09;100.00;100424.44;10411193;28;20033;-71
2023/07/15 16:29:52;;;;;;;6.57;2.42;;;;;;;20.16;100.00;100414.00;10410487;28;20069;-72
2023/07/15 16:34:52;;;;;;;2.75;2.35;;;;;;;20.19;100.00;100411.53;10411420;28;20116;-71
2023/07/15 16:39:52;;;;;;;6.45;2.22;;;;;;;20.34;100.00;100404.41;10411171;28;20094;-71
2023/07/15 16:44:53;;;;;;;2.53;2.33;;;;;;;20.53;100.00;100408.28;10414171;28;20453;-71
2023/07/15 16:49:54;;;;;;;6.85;1.65;;;;;;;20.75;100.00;100409.94;10433808;28;20042;-71
2023/07/15 16:54:54;;;;;;;3.28;2.00;;;;;;;21.07;100.00;100417.84;10418350;28;20048;-71
2023/07/15 16:59:54;;;;;;;4.30;2.33;;;;;;;21.22;100.00;100405.94;10419362;28;20084;-70
2023/07/15 17:04:55;;;;;;;3.22;1.85;;;;;;;21.20;100.00;100411.75;10418928;28;20420;-71
2023/07/15 17:09:56;;;;;;;2.28;2.08;;;;;;;21.14;100.00;100410.94;10433511;28;20041;-70
2023/07/15 17:14:56;;;;;;;4.30;2.83;;;;;;;21.03;100.00;100412.06;10416461;28;20100;-70
2023/07/15 17:19:56;;;;;;;4.93;1.60;;;;;;;20.87;100.00;100413.22;10416370;28;20087;-70
2023/07/15 17:24:57;;;;;;;3.95;2.83;;;;;;;20.86;100.00;100409.63;10398947;28;20148;-70
2023/07/15 17:29:57;;;;;;;7.03;2.58;;;;;;;20.82;100.00;100418.72;10415294;28;20033;-70
2023/07/15 17:34:58;;;;;;;17.92;3.05;;;;;;;20.85;100.00;100431.91;10430939;28;20052;-71
2023/07/15 17:39:58;;;;;;;1.88;1.77;;;;;;;20.86;100.00;100433.56;10415019;28;20032;-70
2023/07/15 17:44:58;;;;;;;2.10;1.45;;;;;;;20.81;100.00;100444.59;10414805;28;20509;-70
2023/07/15 17:49:59;;;;;;;2.60;1.80;;;;;;;20.68;100.00;100437.72;10414352;28;20132;-70
2023/07/15 17:54:59;;;;;;;2.33;1.70;;;;;;;20.62;100.00;100431.41;10413924;28;20090;-70
2023/07/15 18:00:00;;;;;;;2.60;2.17;;;;;;;20.74;100.00;100457.78;10415094;28;20079;-70
2023/07/15 18:05:00;;;;;;;2.22;1.85;;;;;;;20.90;100.00;100463.03;10414917;28;20036;-70
2023/07/15 18:10:00;;;;;;;4.88;2.42;;;;;;;20.93;100.00;100472.66;10414494;28;20137;-70
2023/07/15 18:15:01;;;;;;;6.22;2.97;;;;;;;21.08;100.00;100480.06;10415373;28;20040;-70
2023/07/15 18:20:01;;;;;;;4.80;2.50;;;;;;;21.14;100.00;100477.00;10413526;28;20025;-70
2023/07/15 18:25:02;;;;;;;9.65;2.50;;;;;;;21.27;100.00;100481.13;10429190;28;20030;-70
2023/07/15 18:30:03;;;;;;;5.07;2.28;;;;;;;21.25;100.00;100485.25;10412947;28;20397;-69
2023/07/15 18:35:04;;;;;;;11.48;4.13;;;;;;;21.22;100.00;100481.16;10413665;28;20033;-70
2023/07/15 18:40:06;;;;;;;7.95;3.83;;;;;;;21.04;100.00;100489.97;10395568;28;20112;-70
2023/07/15 18:45:07;;;;;;;8.73;4.10;;;;;;;20.76;100.00;100505.13;10412380;28;20390;-70
2023/07/15 18:50:08;;;;;;;19.98;4.35;;;;;;;20.54;100.00;100505.38;10415048;28;20137;-70
2023/07/15 18:55:08;;;;;;;9.48;2.13;;;;;;;20.13;100.00;100519.88;10429861;28;20046;-70
2023/07/15 19:00:09;;;;;;;2.75;2.47;;;;;;;19.83;100.00;100520.56;10429189;28;20072;-70
2023/07/15 19:05:10;;;;;;;12.32;2.33;;;;;;;19.60;100.00;100534.72;10395155;28;20103;-70
2023/07/15 19:10:10;;;;;;;7.90;2.47;;;;;;;19.41;100.00;100540.66;10412784;28;20029;-70
2023/07/15 19:15:11;;;;;;;27.80;3.47;;;;;;;19.21;100.00;100535.03;10414160;28;20106;-70
2023/07/15 19:20:11;;;;;;;4.07;2.75;;;;;;;18.88;100.00;100542.44;10410818;28;20025;-69
2023/07/15 19:25:12;;;;;;;5.70;2.20;;;;;;;18.67;100.00;100549.66;10412889;28;20215;-69
2023/07/15 19:30:12;;;;;;;4.50;2.63;;;;;;;18.54;100.00;100552.81;10427882;28;20072;-69
2023/07/15 19:35:13;;;;;;;5.28;3.65;;;;;;;18.43;100.00;100542.81;10411055;28;20034;-69
2023/07/15 19:40:13;;;;;;;3.75;2.45;;;;;;;18.36;100.00;100551.25;10410646;28;20113;-70
2023/07/15 19:45:14;;;;;;;4.65;3.88;;;;;;;18.19;100.00;100555.97;10411485;28;20091;-68
2023/07/15 19:50:14;;;;;;;6.75;3.63;;;;;;;18.08;100.00;100566.00;10411985;28;20112;-69
2023/07/15 19:55:15;;;;;;;8.95;4.68;;;;;;;17.97;100.00;100575.19;10428230;28;20120;-70
2023/07/15 20:00:15;;;;;;;11.57;4.18;;;;;;;17.91;100.00;100576.19;10410963;28;20417;-70
2023/07/15 20:05:15;;;;;;;19.23;4.13;;;;;;;17.79;100.00;100565.34;10412890;28;20053;-70
2023/07/15 20:10:16;;;;;;;23.17;3.53;;;;;;;17.78;100.00;100567.25;10413257;28;20361;-69
2023/07/15 20:15:16;;;;;;;8.57;3.85;;;;;;;17.73;100.00;100569.06;10411786;28;20056;-70
2023/07/15 20:20:17;;;;;;;10.13;4.95;;;;;;;17.61;100.00;100566.44;10417005;28;20101;-70
2023/07/15 20:25:17;;;;;;;14.45;4.30;;;;;;;17.64;100.00;100579.63;10419466;28;20128;-70
2023/07/15 20:30:18;;;;;;;13.23;5.32;;;;;;;17.59;100.00;100594.06;10420105;28;20045;-70
2023/07/15 20:35:18;;;;;;;10.75;4.45;;;;;;;17.57;100.00;100590.75;10418012;28;20389;-70
2023/07/15 20:40:19;;;;;;;12.15;4.22;;;;;;;17.54;100.00;100594.00;10417513;28;20489;-70
2023/07/15 20:45:19;;;;;;;13.35;4.15;;;;;;;17.50;100.00;100598.31;10418218;28;20041;-69
2023/07/15 20:50:19;;;;;;;12.70;4.53;;;;;;;17.45;100.00;100584.53;10420941;28;20111;-69
2023/07/15 20:55:20;;;;;;;9.52;4.45;;;;;;;17.36;100.00;100597.84;10418457;28;20059;-69
2023/07/15 21:00:22;;;;;;;22.60;4.13;;;;;;;17.35;100.00;100592.59;10417484;28;20045;-70
2023/07/15 21:05:23;;;;;;;10.70;3.55;;;;;;;17.28;100.00;100602.91;10418575;28;20029;-70
2023/07/15 21:10:23;;;;;;;9.45;3.85;;;;;;;17.31;100.00;100607.88;10417517;28;20033;-70
2023/07/15 21:15:24;;;;;;;13.25;4.10;;;;;;;17.19;100.00;100607.94;10417119;28;20403;-69
2023/07/15 21:20:24;;;;;;;7.40;4.68;;;;;;;17.15;100.00;100604.06;10417344;28;20025;-70
2023/07/15 21:25:25;;;;;;;12.50;3.92;;;;;;;17.18;100.00;100617.25;10415619;28;20478;-69
2023/07/15 21:30:25;;;;;;;11.10;4.28;;;;;;;17.15;100.00;100613.09;10417246;28;20052;-69
2023/07/15 21:35:26;;;;;;;14.98;5.50;;;;;;;17.11;100.00;100620.16;10399218;28;20120;-70
2023/07/15 21:40:26;;;;;;;10.00;4.95;;;;;;;17.14;100.00;100627.84;10417177;28;20120;-70
2023/07/15 21:45:27;;;;;;;11.80;4.25;;;;;;;17.13;100.00;100620.72;10416207;28;20112;-70
2023/07/15 21:50:28;;;;;;;6.68;3.85;;;;;;;17.11;100.00;100619.31;10416902;28;20380;-70
2023/07/15 21:55:28;;;;;;;5.03;4.18;;;;;;;17.10;100.00;100631.31;10415228;28;20048;-70
2023/07/15 22:00:29;;;;;;;7.07;3.22;;;;;;;17.05;100.00;100642.19;10415027;28;20034;-70
2023/07/15 22:05:29;;;;;;;9.25;3.65;;;;;;;17.06;100.00;100649.31;10430545;28;20073;-69
2023/07/15 22:10:29;;;;;;;21.10;14.50;;;;;;;17.05;100.00;100653.13;10413976;28;20037;-70
2023/07/15 22:15:30;;;;;;;8.20;4.68;;;;;;;17.02;100.00;100662.66;10414441;28;20112;-70
2023/07/15 22:20:30;;;;;;;20.50;4.90;;;;;;;16.98;100.00;100658.75;10414608;28;20101;-70
2023/07/15 22:25:31;;;;;;;15.52;5.20;;;;;;;17.03;100.00;100664.31;10413503;28;20081;-70
2023/07/15 22:30:31;;;;;;;10.80;3.67;;;;;;;17.02;100.00;100661.84;10431163;28;20145;-70
2023/07/15 22:35:31;;;;;;;16.63;6.28;;;;;;;17.04;100.00;100673.34;10414090;28;20476;-70
2023/07/15 22:40:32;;;;;;;12.48;5.18;;;;;;;17.04;100.00;100673.34;10429052;28;20025;-71
2023/07/15 22:45:32;;;;;;;10.35;4.80;;;;;;;16.95;100.00;100678.41;10413418;28;20049;-70
2023/07/15 22:50:33;;;;;;;27.95;5.63;;;;;;;16.93;100.00;100675.06;10414446;28;20457;-70
2023/07/15 22:55:33;;;;;;;16.15;4.03;;;;;;;16.97;100.00;100670.75;10414417;28;20095;-70